M I D A S
Marine Information and Data Acquisition System
Tripno 462 of the Zeeleeuw from 2003-04-15 06:17:03 to 2003-04-15 13:00:05
Back to CruiseResearch ActivitiesStationsMapUnderway DataData graphs

EquipmentUnitsComment
TimeDGPSUTC
LatitudeDGPSDM.mWGS84
LongitudeDGPSDM.mWGS84
TemperatureSBE03/SBE38deg celciusITS90
ConductivitySBE21S/mITS90
SalinitySBE21 Practical Salinity Units
ChlorophylAChelsea fluorimeterg/lCalibrated in Aceton
Missing or incorrect values are displayed as -999
Sea surface data collected by the RV Zeeleeuw from 2003-04-15 06:17:03 to 2003-04-15 13:00:05
Time Latitude Longitude Temperature Conductivity Salinity ChlorophylA
2003-04-15 06:18:07 51°13.61 2°56.05 15.928055 3.932887 26.258876 -0.444155
2003-04-15 06:19:07 51°13.63 2°55.93 -999 3.932993 26.261275 -0.444155
2003-04-15 06:20:07 51°13.67 2°55.82 -999 3.933204 26.260413 -0.444155
2003-04-15 06:21:07 51°13.69 2°55.79 -999 3.932677 26.255696 -0.444155
2003-04-15 06:22:07 51°13.69 2°55.79 -999 3.932466 26.253729 -0.444155
2003-04-15 06:23:07 51°13.69 2°55.75 -999 3.140959 26.806379 34.815879
2003-04-15 06:24:07 51°13.69 2°55.74 -999 2.963394 26.563656 43.344358
2003-04-15 06:25:07 51°13.72 2°55.73 -999 2.940558 26.517508 43.546614
2003-04-15 06:26:07 51°13.78 2°55.67 -999 2.91467 26.309834 44.187093
2003-04-15 06:27:07 51°13.86 2°55.61 -999 2.791451 25.055725 41.288084
2003-04-15 06:28:07 51°13.97 2°55.53 -999 2.724121 24.379821 38.422785
2003-04-15 06:29:07 51°14.08 2°55.45 -999 2.868473 25.874144 40.9847
2003-04-15 06:30:07 51°14.19 2°55.35 -999 2.840377 25.56593 41.962272
2003-04-15 06:31:07 51°14.29 2°55.22 -999 2.88773 26.066235 41.085828
2003-04-15 06:32:07 51°14.36 2°55.05 -999 2.830698 25.510057 39.231811
2003-04-15 06:33:07 51°14.43 2°54.84 -999 2.883311 26.064473 44.793862
2003-04-15 06:34:07 51°14.53 2°54.59 -999 3.083293 28.236095 45.434341
2003-04-15 06:35:07 51°14.64 2°54.31 -999 3.205321 29.678639 34.478785
2003-04-15 06:36:07 51°14.76 2°54.02 -999 3.229647 30.029069 27.399811
2003-04-15 06:37:07 51°14.87 2°53.73 -999 3.240072 30.160283 28.00658
2003-04-15 06:38:07 51°14.99 2°53.43 -999 3.248602 30.249618 27.939161
2003-04-15 06:39:07 51°15.09 2°53.13 -999 3.246602 30.256502 27.871742
2003-04-15 06:40:07 51°15.19 2°52.8 -999 3.243759 30.253997 29.590922
2003-04-15 06:41:07 51°15.29 2°52.45 -999 3.250393 30.333858 24.096289
2003-04-15 06:42:07 51°15.34 2°52.06 -999 3.246708 30.319867 19.680358
2003-04-15 06:43:07 51°15.35 2°51.66 -999 3.25271 30.391187 18.905042
2003-04-15 06:44:07 51°15.33 2°51.25 14.023914 3.2525 30.409645 19.141007
2003-04-15 06:45:07 51°15.31 2°50.84 14.110898 3.251868 30.418775 18.331982
2003-04-15 06:46:07 51°15.27 2°50.43 11.77576 3.251237 30.453621 26.590785
2003-04-15 06:47:07 51°15.23 2°50.03 12.01909 3.248921 30.454607 23.894033
2003-04-15 06:48:07 51°15.18 2°49.62 11.822034 3.245446 30.436411 25.646922
2003-04-15 06:49:07 51°15.13 2°49.22 11.824087 3.250184 30.490644 38.827298
2003-04-15 06:50:07 51°15.08 2°48.82 12.344636 3.254291 30.534031 38.422785
2003-04-15 06:51:07 51°15.03 2°48.42 12.270185 3.254291 30.533313 31.815742
2003-04-15 06:52:07 51°14.98 2°48.02 11.548253 3.257767 30.569425 30.130272
2003-04-15 06:53:07 51°14.93 2°47.62 10.577639 3.269245 30.684416 36.737315
2003-04-15 06:54:07 51°14.89 2°47.23 11.687868 3.276828 30.772661 41.321794
2003-04-15 06:55:07 51°14.84 2°46.84 12.60253 3.278829 30.815217 48.670443
2003-04-15 06:56:07 51°14.79 2°46.46 11.470011 3.278724 30.825003 51.569452
2003-04-15 06:57:07 51°14.76 2°46.09 10.848024 3.275986 30.810269 54.030238
2003-04-15 06:58:07 51°14.72 2°45.71 11.365774 3.276407 30.830635 57.805691
2003-04-15 06:59:07 51°14.68 2°45.32 10.523549 3.276513 30.843363 57.738272
2003-04-15 07:00:07 51°14.63 2°44.92 11.122509 3.276618 30.851736 55.783127
2003-04-15 07:01:07 51°14.58 2°44.52 10.563923 3.280304 30.893829 64.682409
2003-04-15 07:02:07 51°14.53 2°44.11 11.291454 3.284938 30.934155 61.951947
2003-04-15 07:03:07 51°14.47 2°43.71 11.554345 3.286623 30.943709 52.547024
2003-04-15 07:04:07 51°14.42 2°43.31 11.882771 3.286623 30.947357 47.793999
2003-04-15 07:05:07 51°14.36 2°42.9 11.289246 3.28399 30.929372 44.726443
2003-04-15 07:06:07 51°14.28 2°42.51 10.015729 3.286623 30.961227 39.26552
2003-04-15 07:07:07 51°14.19 2°42.12 11.118406 3.287992 30.981363 38.321657
2003-04-15 07:08:07 51°14.11 2°41.72 10.402977 3.288624 30.989422 37.849725
2003-04-15 07:09:07 51°14.05 2°41.38 11.596747 3.291889 31.016192 40.310512
2003-04-15 07:10:07 51°14.1 2°41.25 10.711022 3.295258 31.032345 43.445486
2003-04-15 07:11:07 51°14.15 2°41.25 10.803238 3.293679 31.040742 52.311059
2003-04-15 07:12:07 51°14.15 2°41.25 9.770875 3.293468 31.049532 56.322477
2003-04-15 07:13:07 51°14.15 2°41.25 10.463827 3.292626 31.042929 55.547161
2003-04-15 07:14:07 51°14.14 2°41.27 11.408388 3.292099 31.038161 55.749418
2003-04-15 07:15:07 51°14.14 2°41.29 9.187644 3.293153 31.049896 52.850409
2003-04-15 07:16:07 51°14.14 2°41.31 9.8499 3.292626 31.048793 53.322341
2003-04-15 07:17:07 51°14.13 2°41.34 11.967172 3.292521 31.043294 53.35605
2003-04-15 07:18:07 51°14.12 2°41.37 11.554941 3.292942 31.049894 53.423469
2003-04-15 07:19:07 51°14.11 2°41.39 11.820939 3.291784 31.040723 52.985247
2003-04-15 07:20:07 51°14.09 2°41.39 9.407017 3.293153 31.050629 52.547024
2003-04-15 07:21:07 51°14.08 2°41.39 9.586911 3.294311 31.048073 50.52446
2003-04-15 07:22:07 51°14.07 2°41.37 12.126345 3.293679 31.050999 52.378477
2003-04-15 07:23:07 51°14.06 2°41.35 12.04983 3.292837 31.040733 52.142512
2003-04-15 07:24:07 51°14.05 2°41.32 11.379829 3.293047 31.0422 51.67058
2003-04-15 07:25:07 51°14.04 2°41.28 12.271635 3.2941 31.0554 52.176221
2003-04-15 07:26:07 51°14.03 2°41.25 11.719539 3.293258 31.047331 53.592016
2003-04-15 07:27:07 51°14.03 2°41.23 10.59112 3.293995 31.046239 51.704289
2003-04-15 07:28:07 51°14.04 2°41.21 10.592933 3.29389 31.045139 50.288494
2003-04-15 07:29:07 51°14.05 2°41.2 10.356533 3.293995 31.049169 50.996392
2003-04-15 07:30:07 51°14.05 2°41.19 10.426886 3.293679 31.050266 49.850272
2003-04-15 07:31:07 51°14.07 2°41.19 10.691626 3.293153 31.051362 53.288631
2003-04-15 07:32:07 51°14.08 2°41.19 10.922152 3.293679 31.053931 56.457315
2003-04-15 07:33:07 51°14.09 2°41.19 9.702638 3.294522 31.062 57.097794
2003-04-15 07:34:07 51°14.1 2°41.19 9.586486 3.295785 31.075203 56.356187
2003-04-15 07:35:07 51°14.1 2°41.21 10.996797 3.295575 31.069335 62.727264
2003-04-15 07:36:07 51°14.09 2°41.23 10.330779 3.294627 31.0631 65.322888
2003-04-15 07:37:07 51°14.06 2°41.24 10.424463 3.295259 31.068968 66.502717
2003-04-15 07:38:07 51°14.03 2°41.23 10.578523 3.295154 31.070802 63.266614
2003-04-15 07:39:07 51°13.99 2°41.2 10.654953 3.294838 31.069701 60.165349
2003-04-15 07:40:07 51°13.95 2°41.15 11.753569 3.293258 31.051729 53.288631
2003-04-15 07:41:07 51°13.91 2°41.1 10.551832 3.293258 31.052462 52.513315
2003-04-15 07:42:07 51°13.88 2°41.06 10.518245 3.29389 31.050268 49.614306
2003-04-15 07:43:07 51°13.85 2°41.01 10.553739 3.293995 31.047704 49.782853
2003-04-15 07:44:07 51°13.83 2°40.96 11.651563 3.295153 31.056872 50.018819
2003-04-15 07:45:07 51°13.81 2°40.91 10.363063 3.292942 31.035973 51.266067
2003-04-15 07:46:07 51°13.79 2°40.86 9.635462 3.294311 31.053935 52.108802
2003-04-15 07:47:07 51°13.77 2°40.81 11.28106 3.294311 31.046608 51.198648
2003-04-15 07:48:07 51°13.75 2°40.76 10.55253 3.292521 31.029377 52.344768
2003-04-15 07:49:07 51°13.77 2°40.62 11.138183 3.293679 31.042939 50.423332
2003-04-15 07:50:07 51°13.89 2°40.44 10.546298 3.293784 31.046969 57.940529
2003-04-15 07:51:07 51°14.05 2°40.29 11.906285 3.296839 31.084739 68.221896
2003-04-15 07:52:07 51°14.21 2°40.22 11.574496 3.298629 31.137992 68.154477
2003-04-15 07:53:07 51°14.39 2°40.2 11.435697 3.299472 31.180706 68.154477
2003-04-15 07:54:07 51°14.56 2°40.19 11.377991 3.300842 31.212771 68.188187
2003-04-15 07:55:07 51°14.73 2°40.19 9.915493 3.304001 31.263648 68.188187
2003-04-15 07:56:07 51°14.9 2°40.21 11.7942 3.309267 31.334466 68.154477
2003-04-15 07:57:07 51°15.07 2°40.24 10.188668 3.314112 31.404671 68.154477
2003-04-15 07:58:07 51°15.24 2°40.27 10.720486 3.316851 31.440146 68.221896
2003-04-15 07:59:07 51°15.41 2°40.31 11.296788 3.317904 31.453451 68.221896
2003-04-15 08:00:07 51°15.57 2°40.34 11.660298 3.320958 31.470611 68.221896
2003-04-15 08:01:07 51°15.74 2°40.37 10.498885 3.323696 31.478473 68.221896
2003-04-15 08:02:07 51°15.9 2°40.4 10.077362 3.32338 31.475155 68.154477
2003-04-15 08:03:07 51°16.06 2°40.44 11.018228 3.325065 31.491355 65.154341
2003-04-15 08:04:07 51°16.22 2°40.5 10.466807 3.326435 31.522166 65.7274
2003-04-15 08:05:07 51°16.37 2°40.57 10.442727 3.327488 31.546697 64.277896
2003-04-15 08:06:07 51°16.52 2°40.68 10.741961 3.328015 31.573957 63.266614
2003-04-15 08:07:07 51°16.66 2°40.79 11.155052 3.3297 31.589431 59.895674
2003-04-15 08:08:07 51°16.81 2°40.9 9.775911 3.330227 31.600972 58.951811
2003-04-15 08:09:07 51°16.95 2°41 10.764587 3.330648 31.612911 56.457315
2003-04-15 08:10:07 51°17.1 2°41.12 10.875519 3.331491 31.62328 56.457315
2003-04-15 08:11:07 51°17.18 2°41.2 10.544949 3.332017 31.634834 56.693281
2003-04-15 08:12:07 51°17.23 2°41.23 10.852051 3.332754 31.633575 48.906409
2003-04-15 08:13:07 51°17.24 2°41.27 10.456701 3.332438 31.637013 51.266067
2003-04-15 08:14:07 51°17.26 2°41.28 8.885798 3.332123 31.63895 50.423332
2003-04-15 08:15:07 51°17.26 2°41.26 10.222425 3.333808 31.637896 45.333212
2003-04-15 08:16:07 51°17.27 2°41.24 10.02567 3.335071 31.651194 51.805418
2003-04-15 08:17:07 51°17.27 2°41.22 11.44446 3.333281 31.65265 52.580734
2003-04-15 08:18:07 51°17.28 2°41.2 10.726192 3.334124 31.664531 53.794272
2003-04-15 08:19:07 51°17.29 2°41.18 11.407608 3.33444 31.660334 51.636871
2003-04-15 08:20:07 51°17.3 2°41.17 9.766215 3.332965 31.64782 51.198648
2003-04-15 08:21:07 51°17.32 2°41.17 10.910959 3.335282 31.682754 52.075093
2003-04-15 08:22:07 51°17.32 2°41.19 11.135233 3.334966 31.678673 51.973965
2003-04-15 08:23:07 51°17.33 2°41.21 10.70397 3.335177 31.668847 50.086238
2003-04-15 08:24:07 51°17.33 2°41.23 10.716125 3.334335 31.679549 53.389759
2003-04-15 08:25:07 51°17.32 2°41.25 10.85594 3.334335 31.67503 51.737999
2003-04-15 08:26:07 51°17.31 2°41.26 10.734355 3.33444 31.661838 47.220939
2003-04-15 08:27:07 51°17.3 2°41.27 9.372645 3.336019 31.664928 42.602751
2003-04-15 08:28:07 51°17.3 2°41.26 11.342342 3.337704 31.668372 46.142238
2003-04-15 08:29:07 51°17.29 2°41.25 10.374163 3.339494 31.659403 42.0634
2003-04-15 08:30:07 51°17.29 2°41.24 11.285889 3.337178 31.665839 50.760426
2003-04-15 08:31:07 51°17.28 2°41.23 10.564295 3.335177 31.677127 57.434888
2003-04-15 08:32:07 51°17.28 2°41.21 11.704871 3.334861 31.672294 56.086512
2003-04-15 08:33:07 51°17.27 2°41.2 12.863517 3.335809 31.667976 54.030238
2003-04-15 08:34:07 51°17.27 2°41.19 8.867807 3.33623 31.686712 55.850546
2003-04-15 08:35:07 51°17.26 2°41.18 11.744527 3.33602 31.685247 57.738272
2003-04-15 08:36:07 51°17.25 2°41.18 11.617342 3.336125 31.672806 54.299913
2003-04-15 08:37:07 51°17.24 2°41.2 10.830335 3.338547 31.680245 50.659298
2003-04-15 08:38:07 51°17.24 2°41.28 9.961313 3.337704 31.673636 43.24323
2003-04-15 08:39:07 51°17.24 2°41.3 9.157337 3.339284 31.681232 40.276802
2003-04-15 08:40:07 51°17.24 2°41.33 9.955869 3.336967 31.665879 48.8727
2003-04-15 08:41:07 51°17.24 2°41.35 10.510567 3.33623 31.668649 50.423332
2003-04-15 08:42:07 51°17.22 2°41.37 9.986416 3.334861 31.658751 51.906546
2003-04-15 08:43:07 51°17.19 2°41.38 10.694411 3.333702 31.657838 55.783127
2003-04-15 08:44:07 51°17.15 2°41.37 10.616307 3.332333 31.629142 51.704289
2003-04-15 08:45:07 51°17.11 2°41.35 9.403562 3.336124 31.644242 47.018683
2003-04-15 08:46:07 51°17.08 2°41.31 11.443635 3.336967 31.643341 46.344494
2003-04-15 08:47:07 51°17.06 2°41.26 11.131499 3.335914 31.636771 45.805144
2003-04-15 08:48:07 51°17.04 2°41.16 11.959343 3.337493 31.630118 39.400358
2003-04-15 08:49:07 51°17.1 2°40.93 11.01615 3.337493 31.646625 50.827845
2003-04-15 08:50:07 51°17.24 2°40.79 10.963206 3.337915 31.699184 58.41246
2003-04-15 08:51:07 51°17.4 2°40.77 11.131776 3.341286 31.770916 68.356734
2003-04-15 08:52:07 51°17.57 2°40.77 11.404578 3.347079 31.864602 68.188187
2003-04-15 08:53:07 51°17.74 2°40.77 10.884774 3.349502 31.910702 68.457862
2003-04-15 08:54:07 51°17.9 2°40.77 11.888833 3.350239 31.927625 64.884665
2003-04-15 08:55:07 51°18.07 2°40.77 10.756427 3.350766 31.946141 62.592426
2003-04-15 08:56:07 51°18.26 2°40.77 11.889288 3.352978 31.972579 60.805828
2003-04-15 08:57:07 51°18.44 2°40.77 11.105171 3.355611 32.008827 61.412597
2003-04-15 08:58:07 51°18.57 2°40.76 11.250282 3.35519 32.021183 61.614853
2003-04-15 08:59:07 51°18.65 2°40.76 10.864087 3.356138 32.031982 56.895537
2003-04-15 09:00:07 51°18.7 2°40.76 11.173805 3.355085 32.031542 55.816836
2003-04-15 09:01:07 51°18.72 2°40.77 10.607061 3.356349 32.038037 51.030101
2003-04-15 09:02:07 51°18.74 2°40.78 10.943561 3.356244 32.050701 52.78299
2003-04-15 09:03:07 51°18.75 2°40.8 8.678197 3.354559 32.034384 53.423469
2003-04-15 09:04:07 51°18.75 2°40.81 9.107571 3.356876 32.042847 52.311059
2003-04-15 09:05:07 51°18.76 2°40.83 9.491543 3.355822 32.040114 55.850546
2003-04-15 09:06:07 51°18.76 2°40.85 11.174864 3.355928 32.042761 58.075366
2003-04-15 09:07:07 51°18.76 2°40.86 8.94484 3.355928 32.042761 58.44617
2003-04-15 09:08:07 51°18.77 2°40.87 8.908219 3.355296 32.038365 59.356324
2003-04-15 09:09:07 51°18.77 2°40.88 10.227847 3.355401 32.034888 59.086648
2003-04-15 09:10:07 51°18.77 2°40.89 11.267628 3.356981 32.040136 57.468597
2003-04-15 09:11:07 51°18.77 2°40.9 8.950703 3.357507 32.04265 57.670853
2003-04-15 09:12:07 51°18.78 2°40.92 11.360996 3.356138 32.046523 59.794546
2003-04-15 09:13:07 51°18.78 2°40.93 10.80106 3.356244 32.040749 59.390033
2003-04-15 09:14:07 51°18.78 2°40.94 10.352521 3.357613 32.048357 58.648426
2003-04-15 09:15:07 51°18.83 2°41.04 10.41146 3.357823 32.042935 56.457315
2003-04-15 09:16:07 51°18.87 2°41.31 11.119097 3.36014 32.056746 50.659298
2003-04-15 09:17:07 51°18.88 2°41.61 11.473955 3.361405 32.100767 59.794546
2003-04-15 09:18:07 51°18.88 2°41.91 10.763011 3.356769 31.946376 42.434204
2003-04-15 09:19:07 51°18.93 2°42.19 12.109677 3.35382 31.884134 33.231537
2003-04-15 09:20:07 51°18.98 2°42.46 11.444552 3.352029 31.844057 41.422922
2003-04-15 09:21:07 51°19.02 2°42.75 11.386717 3.349712 31.821915 41.861144
2003-04-15 09:22:07 51°19.04 2°43.04 12.272269 3.350659 31.819048 43.445486
2003-04-15 09:23:07 51°19.03 2°43.32 12.003077 3.352134 31.799081 42.130819
2003-04-15 09:24:07 51°19.01 2°43.61 12.397525 3.348236 31.740772 29.085281
2003-04-15 09:25:07 51°18.93 2°43.75 11.683388 3.33844 31.567491 28.950443
2003-04-15 09:26:07 51°18.89 2°43.71 11.937077 3.336544 31.494743 20.860187
2003-04-15 09:27:07 51°18.89 2°43.73 10.823944 3.338229 31.53471 30.029144
2003-04-15 09:28:07 51°18.89 2°43.74 11.268364 3.331702 31.657836 50.928973
2003-04-15 09:29:07 51°18.9 2°43.75 10.800041 3.332439 31.708589 55.917965
2003-04-15 09:30:07 51°18.9 2°43.74 9.990122 3.334125 31.74527 60.367606
2003-04-15 09:31:07 51°18.89 2°43.73 10.984416 3.336968 31.747297 56.693281
2003-04-15 09:32:07 51°18.89 2°43.71 12.092551 3.335072 31.685808 43.647742
2003-04-15 09:33:07 51°18.88 2°43.69 11.932523 3.335175 31.498258 27.332392
2003-04-15 09:34:07 51°18.86 2°43.69 10.292876 3.34676 31.594224 22.410819
2003-04-15 09:35:07 51°18.84 2°43.68 10.151104 3.347603 31.649355 21.534375
2003-04-15 09:36:07 51°18.82 2°43.68 10.394446 3.347709 31.657193 20.253418
2003-04-15 09:37:07 51°18.8 2°43.69 9.378801 3.347814 31.649319 20.219708
2003-04-15 09:38:07 51°18.78 2°43.71 10.697659 3.349604 31.644904 18.635366
2003-04-15 09:39:07 51°18.77 2°43.73 9.134099 3.347814 31.650815 23.624358
2003-04-15 09:40:07 51°18.76 2°43.76 11.293201 3.344865 31.649077 25.613212
2003-04-15 09:41:07 51°18.76 2°43.8 10.041608 3.346024 31.638776 22.781623
2003-04-15 09:42:07 51°18.76 2°43.83 11.670861 3.345392 31.63589 20.893896
2003-04-15 09:43:07 51°18.77 2°43.87 11.28221 3.345497 31.632507 21.197281
2003-04-15 09:44:07 51°18.78 2°43.9 9.653807 3.346129 31.614469 20.556802
2003-04-15 09:45:07 51°18.79 2°43.93 9.616405 3.349499 31.644548 20.421965
2003-04-15 09:46:07 51°18.81 2°43.95 9.672524 3.348446 31.643229 23.961452
2003-04-15 09:47:07 51°18.83 2°43.97 11.78603 3.341495 31.607737 28.613349
2003-04-15 09:48:07 51°18.85 2°43.99 9.977502 3.346234 31.654455 31.175264
2003-04-15 09:49:07 51°18.87 2°44 10.411507 3.348761 31.621142 27.972871
2003-04-15 09:50:07 51°18.89 2°44.01 10.506657 3.349287 31.581933 28.040289
2003-04-15 09:51:07 51°18.91 2°44.02 11.042236 3.348445 31.54636 26.961589
2003-04-15 09:52:07 51°18.93 2°44.03 10.511404 3.351815 31.583058 26.725623
2003-04-15 09:53:07 51°18.95 2°44.03 10.832836 3.353711 31.624463 25.309828
2003-04-15 09:54:07 51°18.97 2°44.02 11.60883 3.343075 31.683522 37.849725
2003-04-15 09:55:07 51°19 2°44.01 10.509776 3.3396 31.651503 27.635777
2003-04-15 09:56:07 51°19.03 2°44.02 10.28363 3.344023 31.637243 24.096289
2003-04-15 09:57:07 51°19.06 2°44.03 9.740697 3.350868 31.642452 22.91646
2003-04-15 09:58:07 51°19.09 2°44.06 11.51375 3.350868 31.656649 24.129999
2003-04-15 09:59:07 51°19.11 2°44.08 11.925418 3.350236 31.664985 25.916597
2003-04-15 10:00:07 51°19.14 2°44.1 12.00144 3.347498 31.651243 27.939161
2003-04-15 10:01:07 51°19.16 2°44.13 11.477486 3.349078 31.658079 26.422238
2003-04-15 10:02:07 51°19.18 2°44.15 11.562315 3.352869 31.65743 25.882888
2003-04-15 10:03:07 51°19.2 2°44.18 11.671638 3.35329 31.658105 26.219982
2003-04-15 10:04:07 51°19.22 2°44.2 11.125229 3.353396 31.655474 26.691913
2003-04-15 10:05:07 51°19.24 2°44.23 10.915168 3.34971 31.672936 31.276392
2003-04-15 10:06:07 51°19.26 2°44.25 12.018271 3.350236 31.656009 28.208836
2003-04-15 10:07:07 51°19.28 2°44.28 9.609941 3.351711 31.67146 31.242683
2003-04-15 10:08:07 51°19.29 2°44.33 11.746536 3.349605 31.733349 43.984836
2003-04-15 10:09:07 51°19.3 2°44.38 9.716395 3.345919 31.677367 32.388802
2003-04-15 10:10:07 51°19.3 2°44.42 11.333473 3.350657 31.660424 31.815742
2003-04-15 10:11:07 51°19.3 2°44.45 11.921182 3.347814 31.658298 31.95058
2003-04-15 10:12:07 51°19.28 2°44.48 10.916926 3.351605 31.635985 20.590512
2003-04-15 10:13:07 51°19.24 2°44.51 12.046556 3.355502 31.666319 16.579093
2003-04-15 10:14:07 51°19.19 2°44.54 11.836174 3.350657 31.651453 17.017315
2003-04-15 10:15:07 51°19.14 2°44.57 11.453728 3.354659 31.632139 15.466683
2003-04-15 10:16:07 51°19.08 2°44.61 10.924464 3.354449 31.652311 16.275708
2003-04-15 10:17:07 51°19.03 2°44.64 11.436155 3.343602 31.683799 21.905178
2003-04-15 10:18:07 51°18.97 2°44.67 10.736164 3.335282 31.651907 24.163708
2003-04-15 10:19:07 51°18.91 2°44.71 10.30156 3.338442 31.688164 24.736768
2003-04-15 10:20:07 51°18.85 2°44.75 11.291454 3.340337 31.685543 23.658067
2003-04-15 10:21:07 51°18.79 2°44.79 12.412493 3.343918 31.690874 24.163708
2003-04-15 10:22:07 51°18.72 2°44.82 10.735236 3.342654 31.710668 34.343947
2003-04-15 10:23:07 51°18.66 2°44.84 11.676851 3.340443 31.728064 34.579913
2003-04-15 10:24:07 51°18.6 2°44.88 10.17169 3.34971 31.678927 20.961315
2003-04-15 10:25:07 51°18.54 2°44.91 12.015405 3.348868 31.727107 29.051571
2003-04-15 10:26:07 51°18.48 2°44.94 12.00426 3.350869 31.715073 27.568358
2003-04-15 10:27:07 51°18.42 2°44.94 10.954332 3.345815 31.777089 46.411913
2003-04-15 10:28:07 51°18.38 2°44.9 12.169833 3.346446 31.755077 46.479332
2003-04-15 10:29:07 51°18.34 2°44.86 10.703274 3.345709 31.768433 51.333486
2003-04-15 10:30:07 51°18.29 2°44.83 12.058103 3.347815 31.767223 43.479195
2003-04-15 10:31:07 51°18.25 2°44.8 12.483623 3.3495 31.774398 39.096973
2003-04-15 10:32:07 51°18.21 2°44.76 11.280048 3.351817 31.767122 44.288221
2003-04-15 10:33:07 51°18.17 2°44.71 12.039009 3.349817 31.808664 51.67058
2003-04-15 10:34:07 51°18.14 2°44.66 10.703274 3.350448 31.787386 42.67017
2003-04-15 10:35:07 51°18.09 2°44.64 10.6855 3.352659 31.748893 33.231537
2003-04-15 10:36:07 51°18.04 2°44.61 11.568131 3.352976 31.789093 44.793862
2003-04-15 10:37:07 51°18 2°44.6 11.340504 3.35087 31.818999 51.232358
2003-04-15 10:38:07 51°17.96 2°44.59 10.86043 3.350764 31.798256 43.614033
2003-04-15 10:39:07 51°17.92 2°44.59 11.292649 3.352028 31.77536 46.378204
2003-04-15 10:40:07 51°17.88 2°44.6 10.492415 3.352028 31.785155 45.771435
2003-04-15 10:41:07 51°17.85 2°44.6 11.105863 3.351291 31.814369 49.614306
2003-04-15 10:42:07 51°17.81 2°44.6 11.319822 3.352239 31.778328 48.973828
2003-04-15 10:43:07 51°17.78 2°44.59 11.098761 3.350554 31.796793 55.07523
2003-04-15 10:44:07 51°17.76 2°44.59 10.841866 3.349816 31.769431 49.782853
2003-04-15 10:45:07 51°17.73 2°44.57 11.201947 3.350869 31.749636 48.8727
2003-04-15 10:46:07 51°17.71 2°44.56 10.759348 3.351817 31.745306 47.456905
2003-04-15 10:47:07 51°17.69 2°44.54 11.066006 3.350975 31.770313 51.400905
2003-04-15 10:48:07 51°17.67 2°44.53 11.421837 3.35108 31.753353 45.670306
2003-04-15 10:49:07 51°17.64 2°44.52 10.68174 3.351606 31.74986 45.46805
2003-04-15 10:50:07 51°17.61 2°44.52 11.446984 3.346657 31.743732 58.075366
2003-04-15 10:51:07 51°17.58 2°44.51 11.790823 3.348974 31.765844 52.884118
2003-04-15 10:52:07 51°17.56 2°44.5 10.839967 3.349921 31.755476 49.074956
2003-04-15 10:53:07 51°17.54 2°44.49 11.626219 3.345814 31.771805 68.390443
2003-04-15 10:54:07 51°17.52 2°44.47 10.462895 3.342234 31.762773 68.356734
2003-04-15 10:55:07 51°17.5 2°44.45 10.855431 3.340443 31.759765 68.221896
2003-04-15 10:56:07 51°17.49 2°44.43 11.042236 3.340865 31.757407 68.356734
2003-04-15 10:57:07 51°17.48 2°44.43 9.318731 3.34434 31.749492 60.738409
2003-04-15 10:58:07 51°17.47 2°44.43 11.484319 3.345077 31.761024 68.323024
2003-04-15 10:59:07 51°17.47 2°44.44 11.675708 3.343919 31.755615 64.952084
2003-04-15 11:00:07 51°17.46 2°44.45 9.792052 3.342655 31.741553 63.064358
2003-04-15 11:01:07 51°17.46 2°44.46 10.302634 3.343708 31.75038 61.142922
2003-04-15 11:02:07 51°17.45 2°44.47 9.528639 3.33918 31.742666 68.491571
2003-04-15 11:03:07 51°17.45 2°44.49 9.1733 3.338758 31.73596 67.278033
2003-04-15 11:04:07 51°17.44 2°44.51 11.729453 3.342655 31.734768 56.659571
2003-04-15 11:05:07 51°17.44 2°44.53 11.756309 3.343497 31.739868 62.086785
2003-04-15 11:06:07 51°17.43 2°44.55 10.319905 3.342128 31.735254 59.929383
2003-04-15 11:07:07 51°17.43 2°44.56 12.04792 3.339179 31.726817 68.457862
2003-04-15 11:08:07 51°17.43 2°44.56 11.631298 3.339285 31.72491 64.04193
2003-04-15 11:09:07 51°17.44 2°44.56 10.351495 3.340759 31.720085 62.862101
2003-04-15 11:10:07 51°17.47 2°44.51 9.418991 3.337915 31.695419 60.940665
2003-04-15 11:11:07 51°17.49 2°44.43 10.665028 3.341496 31.742174 63.671127
2003-04-15 11:12:07 51°17.5 2°44.39 8.770132 3.340022 31.719104 66.87352
2003-04-15 11:13:07 51°17.52 2°44.41 10.519874 3.346025 31.775533 68.188187
2003-04-15 11:14:07 51°17.53 2°44.42 10.300393 3.344235 31.788397 68.120768
2003-04-15 11:15:07 51°17.54 2°44.44 11.146249 3.346131 31.782682 68.188187
2003-04-15 11:16:07 51°17.56 2°44.46 11.092857 3.347078 31.780585 68.390443
2003-04-15 11:17:07 51°17.57 2°44.48 10.091087 3.349606 31.789081 68.154477
2003-04-15 11:18:07 51°17.59 2°44.5 10.810279 3.35087 31.783523 61.008084
2003-04-15 11:19:07 51°17.6 2°44.52 10.574571 3.353292 31.779608 59.861965
2003-04-15 11:20:07 51°17.62 2°44.53 11.333243 3.352028 31.791186 66.30046
2003-04-15 11:21:07 51°17.65 2°44.55 10.364836 3.35087 31.791065 65.289178
2003-04-15 11:22:07 51°17.68 2°44.56 11.144129 3.352765 31.79517 62.255332
2003-04-15 11:23:07 51°17.71 2°44.59 11.858793 3.353924 31.790769 58.513589
2003-04-15 11:24:07 51°17.75 2°44.61 11.286763 3.353292 31.800708 65.525144
2003-04-15 11:25:07 51°17.78 2°44.64 11.253043 3.353924 31.798306 62.862101
2003-04-15 11:26:07 51°17.81 2°44.67 10.241354 3.352976 31.809454 66.671264
2003-04-15 11:27:07 51°17.84 2°44.71 10.519083 3.353187 31.802617 64.749828
2003-04-15 11:28:07 51°17.88 2°44.74 10.891854 3.354345 31.810276 64.6487
2003-04-15 11:29:07 51°18 2°44.86 10.041749 3.354872 31.816569 62.96323
2003-04-15 11:30:07 51°18.19 2°45.09 11.417615 3.355188 31.840279 68.457862
2003-04-15 11:31:07 51°18.37 2°45.38 10.50461 3.353925 31.868574 68.188187
2003-04-15 11:32:07 51°18.56 2°45.66 10.122694 3.353293 31.883131 62.92952
2003-04-15 11:33:07 51°18.75 2°45.93 11.139658 3.35403 31.898491 61.682272
2003-04-15 11:34:07 51°18.94 2°46.19 10.148296 3.353609 31.904673 60.435024
2003-04-15 11:35:07 51°19.12 2°46.47 10.901107 3.354347 31.921568 62.053076
2003-04-15 11:36:07 51°19.3 2°46.76 10.893982 3.355505 31.933036 60.67099
2003-04-15 11:37:07 51°19.45 2°46.92 9.720823 3.355505 31.939878 54.434751
2003-04-15 11:38:07 51°19.52 2°47.05 11.273286 3.35698 31.953163 52.951537
2003-04-15 11:39:07 51°19.52 2°47.18 10.313884 3.354452 31.945494 53.693144
2003-04-15 11:40:07 51°19.5 2°47.26 10.222332 3.356453 31.95369 53.659435
2003-04-15 11:41:07 51°19.46 2°47.28 10.976053 3.354347 31.939816 58.648426
2003-04-15 11:42:07 51°19.42 2°47.23 8.496382 3.356137 31.929825 54.266204
2003-04-15 11:43:07 51°19.39 2°47.16 9.712862 3.352977 31.911675 56.558443
2003-04-15 11:44:07 51°19.36 2°47.08 10.625553 3.353504 31.922554 59.996802
2003-04-15 11:45:07 51°19.34 2°47 11.136893 3.354557 31.934434 59.727127
2003-04-15 11:46:07 51°19.31 2°46.93 10.307629 3.353188 31.937471 61.075503
2003-04-15 11:47:07 51°19.28 2°46.86 9.868325 3.354768 31.93894 59.457452
2003-04-15 11:48:07 51°19.27 2°46.81 9.78777 3.35403 31.909878 59.086648
2003-04-15 11:49:07 51°19.25 2°46.75 10.35644 3.354663 31.938588 62.457589
2003-04-15 11:50:07 51°19.23 2°46.7 10.839967 3.352767 31.907173 54.771845
2003-04-15 11:51:07 51°19.2 2°46.66 10.459169 3.354768 31.900955 49.883982
2003-04-15 11:52:07 51°19.18 2°46.61 10.585542 3.355926 31.932921 60.839537
2003-04-15 11:53:07 51°19.17 2°46.56 10.190679 3.355294 31.927772 57.536016
2003-04-15 11:54:07 51°19.14 2°46.51 10.196618 3.354663 31.922623 55.513452
2003-04-15 11:55:07 51°19.11 2°46.47 9.63018 3.356874 31.927728 53.794272
2003-04-15 11:56:07 51°19.09 2°46.43 9.140895 3.356558 31.927433 59.659708
2003-04-15 11:57:07 51°19.07 2°46.38 9.529395 3.3554 31.921286 61.513725
2003-04-15 11:58:07 51°19.05 2°46.34 10.48045 3.355715 31.888958 51.535742
2003-04-15 11:59:07 51°19.03 2°46.29 9.093828 3.354873 31.888415 59.592289
2003-04-15 12:00:07 51°19.01 2°46.24 10.275177 3.358032 31.91338 58.007947
2003-04-15 12:01:07 51°18.99 2°46.19 8.9772 3.35582 31.875675 59.592289
2003-04-15 12:02:07 51°18.97 2°46.13 9.557971 3.359191 31.888459 59.052939
2003-04-15 12:03:07 51°18.96 2°46.08 9.490692 3.356873 31.837617 52.78299
2003-04-15 12:04:07 51°18.93 2°46.04 9.79718 3.362876 31.871299 49.243503
2003-04-15 12:05:07 51°18.91 2°46 9.768051 3.358558 31.837979 61.176631
2003-04-15 12:06:07 51°18.88 2°45.96 10.694689 3.360664 31.843524 56.356187
2003-04-15 12:07:07 51°18.85 2°45.92 10.449388 3.360875 31.828399 53.187503
2003-04-15 12:08:07 51°18.83 2°45.87 9.717855 3.359611 31.822658 61.277759
2003-04-15 12:09:07 51°18.8 2°45.83 9.853849 3.358663 31.81722 60.772118
2003-04-15 12:10:07 51°18.77 2°45.8 9.884725 3.359506 31.805737 55.547161
2003-04-15 12:11:07 51°18.75 2°45.75 10.720996 3.356557 31.802621 68.087059
2003-04-15 12:12:07 51°18.73 2°45.71 9.745124 3.353187 31.792815 68.154477
2003-04-15 12:13:07 51°18.69 2°45.68 9.644234 3.350659 31.781308 66.704973
2003-04-15 12:14:07 51°18.66 2°45.65 10.383909 3.350554 31.777185 68.188187
2003-04-15 12:15:07 51°18.63 2°45.61 9.804754 3.347921 31.7623 68.154477
2003-04-15 12:16:07 51°18.61 2°45.56 10.370666 3.347078 31.757204 68.087059
2003-04-15 12:17:07 51°18.6 2°45.51 10.383629 3.346657 31.752018 68.120768
2003-04-15 12:18:07 51°18.6 2°45.47 9.705795 3.346025 31.737085 68.087059
2003-04-15 12:19:07 51°18.61 2°45.43 10.050138 3.345498 31.732299 68.154477
2003-04-15 12:20:07 51°18.63 2°45.39 11.037712 3.345393 31.73345 68.154477
2003-04-15 12:21:07 51°18.66 2°45.35 9.891397 3.344445 31.727997 68.154477
2003-04-15 12:22:07 51°18.69 2°45.33 11.666563 3.34434 31.729901 68.087059
2003-04-15 12:23:07 51°18.72 2°45.32 9.806777 3.343708 31.728523 68.154477
2003-04-15 12:24:07 51°18.75 2°45.32 9.692272 3.343918 31.727727 68.154477
2003-04-15 12:25:07 51°18.78 2°45.33 9.189211 3.343918 31.725468 68.154477
2003-04-15 12:26:07 51°18.8 2°45.34 9.865693 3.344866 31.734688 68.087059
2003-04-15 12:27:07 51°18.83 2°45.35 9.914037 3.344024 31.738628 68.120768
2003-04-15 12:28:07 51°18.89 2°45.41 10.500933 3.344024 31.725071 68.120768
2003-04-15 12:29:07 51°18.88 2°45.61 9.896611 3.345077 31.736904 68.120768
2003-04-15 12:30:07 51°18.74 2°45.89 11.224968 3.345182 31.743285 68.087059
2003-04-15 12:31:07 51°18.57 2°46.15 9.807106 3.345814 31.720572 68.154477
2003-04-15 12:32:07 51°18.4 2°46.4 10.478029 3.347604 31.710824 68.188187
2003-04-15 12:33:07 51°18.23 2°46.65 10.185769 3.353186 31.729633 60.805828
2003-04-15 12:34:07 51°18.07 2°46.91 10.191895 3.342549 31.66823 61.81711
2003-04-15 12:35:07 51°17.91 2°47.18 9.993734 3.338862 31.585353 60.13164
2003-04-15 12:36:07 51°17.75 2°47.45 10.328819 3.338124 31.521693 66.33417
2003-04-15 12:37:07 51°17.59 2°47.71 10.356113 3.336438 31.482494 68.188187
2003-04-15 12:38:07 51°17.45 2°47.99 10.989637 3.338123 31.471907 68.154477
2003-04-15 12:39:07 51°17.3 2°48.28 10.975545 3.334015 31.414908 68.120768
2003-04-15 12:40:07 51°17.15 2°48.56 10.606828 3.334542 31.436703 68.154477
2003-04-15 12:41:07 51°17.01 2°48.86 11.466159 3.33054 31.414131 68.087059
2003-04-15 12:42:07 51°16.87 2°49.15 10.59033 3.325064 31.371673 68.120768
2003-04-15 12:43:07 51°16.72 2°49.44 10.467831 3.323378 31.335563 68.120768
2003-04-15 12:44:07 51°16.58 2°49.74 10.583869 3.323483 31.31377 68.424153
2003-04-15 12:45:07 51°16.43 2°50.04 9.990919 3.328222 31.302054 68.390443
2003-04-15 12:46:07 51°16.29 2°50.33 10.232147 3.325484 31.290431 68.154477
2003-04-15 12:47:07 51°16.14 2°50.63 9.960468 3.322956 31.250835 68.154477
2003-04-15 12:48:07 51°15.99 2°50.92 10.839319 3.315794 31.174725 68.188187
2003-04-15 12:49:07 51°15.85 2°51.22 10.19919 3.305576 30.865158 24.905315
2003-04-15 12:50:07 51°15.7 2°51.51 10.353361 3.28662 30.72505 37.310375
2003-04-15 12:51:07 51°15.55 2°51.81 10.97707 3.288514 30.62937 14.657657
2003-04-15 12:52:07 51°15.4 2°52.11 11.287039 3.28704 30.602753 19.612939
2003-04-15 12:53:07 51°15.26 2°52.41 10.862004 3.285776 30.578329 39.366648
2003-04-15 12:54:07 51°15.14 2°52.73 10.894398 3.284827 30.48203 30.602204
2003-04-15 12:55:07 51°15.02 2°53.06 11.261739 3.27398 30.393825 28.343674
2003-04-15 12:56:07 51°14.9 2°53.38 11.561353 3.28809 30.367695 21.534375
2003-04-15 12:57:07 51°14.78 2°53.69 11.896671 3.289249 30.450516 26.2874
2003-04-15 12:58:07 51°14.68 2°53.99 11.813229 3.280194 30.482492 31.782033
2003-04-15 12:59:07 51°14.57 2°54.29 11.690976 3.273875 30.409687 28.411093